createdAt,value
2016-07-11T00:00:47.059Z,0
2016-07-11T00:01:47.070Z,0
2016-07-11T00:02:32.199Z,0
2016-07-11T00:03:32.220Z,0
2016-07-11T00:04:32.250Z,0
2016-07-11T00:05:47.196Z,0
2016-07-11T00:06:32.302Z,0
2016-07-11T00:07:47.245Z,0
2016-07-11T00:08:32.364Z,0
2016-07-11T00:09:32.384Z,0
2016-07-11T00:10:32.427Z,0
2016-07-11T00:12:32.486Z,0
2016-07-11T00:13:33.115Z,0
2016-07-11T00:14:32.543Z,0
2016-07-11T00:15:32.558Z,0
2016-07-11T00:16:32.580Z,0
2016-07-11T00:17:32.617Z,0
2016-07-11T00:18:32.643Z,0
2016-07-11T00:20:32.698Z,0
2016-07-11T00:21:47.652Z,0
2016-07-11T00:23:32.784Z,0
2016-07-11T00:25:47.762Z,0
2016-07-11T00:26:32.877Z,0
2016-07-11T00:27:32.903Z,0
2016-07-11T00:28:47.847Z,0
2016-07-11T00:29:32.959Z,0
2016-07-11T00:30:32.982Z,0
2016-07-11T00:31:33.019Z,0
2016-07-11T00:32:47.952Z,0
2016-07-11T00:33:33.075Z,0
2016-07-11T00:34:33.100Z,0
2016-07-11T00:35:33.136Z,0
2016-07-11T00:37:02.985Z,0
2016-07-11T00:37:33.182Z,0
2016-07-11T00:39:48.158Z,0
2016-07-11T00:40:33.286Z,0
2016-07-11T00:41:33.316Z,0
2016-07-11T00:42:33.321Z,0
2016-07-11T00:43:48.274Z,0
2016-07-11T00:44:33.382Z,0
2016-07-11T00:45:33.412Z,0
2016-07-11T00:46:33.440Z,0
2016-07-11T00:47:33.473Z,0
2016-07-11T00:48:33.502Z,0
2016-07-11T00:49:33.541Z,0
2016-07-11T00:50:33.551Z,0
2016-07-11T00:51:33.579Z,0
2016-07-11T00:52:33.612Z,0
2016-07-11T00:53:33.636Z,0
2016-07-11T00:54:48.584Z,0
2016-07-11T00:55:33.707Z,0
2016-07-11T00:56:33.714Z,0
2016-07-11T00:57:48.675Z,0
2016-07-11T00:58:33.778Z,0
2016-07-11T00:59:33.806Z,0
2016-07-11T01:01:48.776Z,0
2016-07-11T01:02:33.903Z,0
2016-07-11T01:03:33.920Z,0
2016-07-11T01:04:33.949Z,0
2016-07-11T01:05:33.980Z,0
2016-07-11T01:06:34.623Z,0
2016-07-11T01:07:34.024Z,0
2016-07-11T01:08:48.970Z,0
2016-07-11T01:09:34.093Z,0
2016-07-11T01:10:34.122Z,0
2016-07-11T01:12:49.090Z,0
2016-07-11T01:13:34.206Z,0
2016-07-11T01:14:49.143Z,0
2016-07-11T01:15:34.258Z,0
2016-07-11T01:16:34.290Z,0
2016-07-11T01:17:34.313Z,0
2016-07-11T01:19:34.371Z,0
2016-07-11T01:20:34.396Z,0
2016-07-11T01:21:34.436Z,0
2016-07-11T01:22:34.459Z,0
2016-07-11T01:23:34.540Z,0
2016-07-11T01:25:34.544Z,0
2016-07-11T01:27:49.511Z,0
2016-07-11T01:28:49.540Z,0
2016-07-11T01:29:34.659Z,0
2016-07-11T01:30:34.682Z,0
2016-07-11T01:31:34.732Z,0
2016-07-11T01:32:34.748Z,0
2016-07-11T01:33:34.762Z,0
2016-07-11T01:34:34.801Z,0
2016-07-11T01:35:34.825Z,0
2016-07-11T01:36:34.846Z,0
2016-07-11T01:37:34.879Z,0
2016-07-11T01:38:34.917Z,0
2016-07-11T01:39:35.529Z,0
2016-07-11T01:40:49.887Z,0
2016-07-11T01:41:34.986Z,0
2016-07-11T01:42:49.934Z,0
2016-07-11T01:43:35.047Z,0
2016-07-11T01:44:35.072Z,0
2016-07-11T01:45:35.107Z,0
2016-07-11T01:46:50.048Z,0
2016-07-11T01:47:50.073Z,0
2016-07-11T01:48:35.181Z,0
2016-07-11T01:49:35.218Z,0
2016-07-11T01:50:35.241Z,0
2016-07-11T01:51:50.180Z,0
2016-07-11T01:52:35.303Z,0
2016-07-11T01:53:35.324Z,0
2016-07-11T01:54:35.369Z,0
2016-07-11T01:55:35.389Z,0
2016-07-11T01:56:50.324Z,0
2016-07-11T01:57:35.446Z,0
2016-07-11T01:58:35.467Z,0
2016-07-11T01:59:50.418Z,0
2016-07-11T02:00:50.444Z,0
2016-07-11T02:01:35.539Z,0
2016-07-11T02:02:35.577Z,0
2016-07-11T02:03:35.610Z,0
2016-07-11T02:04:35.635Z,0
2016-07-11T02:05:35.664Z,0
2016-07-11T02:06:35.698Z,0
2016-07-11T02:07:35.723Z,0
2016-07-11T02:08:35.753Z,0
2016-07-11T02:09:35.778Z,0
2016-07-11T02:10:35.809Z,0
2016-07-11T02:11:50.745Z,0
2016-07-11T02:13:35.888Z,0
2016-07-11T02:14:35.914Z,0
2016-07-11T02:15:50.863Z,0
2016-07-11T02:16:35.980Z,0
2016-07-11T02:17:35.988Z,0
2016-07-11T02:18:36.036Z,0
2016-07-11T02:19:50.971Z,0
2016-07-11T02:20:36.083Z,0
2016-07-11T02:21:36.113Z,0
2016-07-11T02:22:36.148Z,0
2016-07-11T02:23:36.171Z,0
2016-07-11T02:24:36.205Z,0
2016-07-11T02:25:36.233Z,0
2016-07-11T02:26:36.254Z,0
2016-07-11T02:27:36.287Z,0
2016-07-11T02:28:36.323Z,0
2016-07-11T02:30:51.280Z,0
2016-07-11T02:31:36.403Z,0
2016-07-11T02:32:36.430Z,0
2016-07-11T02:33:36.446Z,0
2016-07-11T02:34:36.481Z,0
2016-07-11T02:35:36.510Z,0
2016-07-11T02:36:36.531Z,0
2016-07-11T02:37:36.561Z,0
2016-07-11T02:38:51.497Z,0
2016-07-11T02:39:36.613Z,0
2016-07-11T02:40:36.647Z,0
2016-07-11T02:41:36.670Z,0
2016-07-11T02:42:36.706Z,0
2016-07-11T02:43:51.647Z,0
2016-07-11T02:44:36.752Z,0
2016-07-11T02:45:36.784Z,0
2016-07-11T02:46:36.806Z,0
2016-07-11T02:48:36.866Z,0
2016-07-11T02:49:36.906Z,0
2016-07-11T02:50:51.836Z,0
2016-07-11T02:51:36.958Z,0
2016-07-11T02:52:36.977Z,0
2016-07-11T02:53:51.916Z,0
2016-07-11T02:54:37.039Z,0
2016-07-11T02:55:37.056Z,0
2016-07-11T02:56:37.091Z,0
2016-07-11T02:58:37.149Z,0
2016-07-11T02:59:52.087Z,5
2016-07-11T03:00:37.207Z,5
2016-07-11T03:01:37.223Z,5
2016-07-11T03:02:37.276Z,5
2016-07-11T03:03:37.280Z,5
2016-07-11T03:04:37.308Z,5
2016-07-11T03:05:37.336Z,5
2016-07-11T03:07:37.398Z,10
2016-07-11T03:08:37.439Z,10
2016-07-11T03:09:37.458Z,10
2016-07-11T03:10:37.485Z,10
2016-07-11T03:11:37.502Z,10
2016-07-11T03:13:52.474Z,15
2016-07-11T03:14:37.604Z,15
2016-07-11T03:16:07.443Z,15
2016-07-11T03:16:37.639Z,15
2016-07-11T03:18:52.617Z,15
2016-07-11T03:19:37.741Z,15
2016-07-11T03:20:52.667Z,15
2016-07-11T03:21:37.788Z,20
2016-07-11T03:22:37.812Z,20
2016-07-11T03:23:39.054Z,20
2016-07-11T03:24:37.864Z,20
2016-07-11T03:25:37.889Z,20
2016-07-11T03:26:37.925Z,20
2016-07-11T03:27:37.955Z,20
2016-07-11T03:28:37.976Z,20
2016-07-11T03:30:38.038Z,20
2016-07-11T03:31:52.973Z,20
2016-07-11T03:32:38.104Z,20
2016-07-11T03:34:38.137Z,20
2016-07-11T03:35:53.091Z,20
2016-07-11T03:36:38.197Z,20
2016-07-11T03:38:38.269Z,20
2016-07-11T03:39:38.283Z,25
2016-07-11T03:40:38.320Z,25
2016-07-11T03:41:53.256Z,25
2016-07-11T03:42:38.370Z,25
2016-07-11T03:44:53.337Z,30
2016-07-11T03:45:38.462Z,30
2016-07-11T03:46:53.397Z,30
2016-07-11T03:47:38.513Z,30
2016-07-11T03:48:53.460Z,30
2016-07-11T03:49:38.560Z,35
2016-07-11T03:50:38.595Z,35
2016-07-11T03:51:38.624Z,35
2016-07-11T03:52:38.664Z,35
2016-07-11T03:53:53.592Z,35
2016-07-11T03:54:38.713Z,35
2016-07-11T03:55:38.730Z,35
2016-07-11T03:56:38.756Z,35
2016-07-11T03:57:53.708Z,40
2016-07-11T03:58:53.728Z,40
2016-07-11T03:59:38.852Z,40
2016-07-11T04:00:38.872Z,40
2016-07-11T04:01:38.900Z,40
2016-07-11T04:02:53.833Z,45
2016-07-11T04:03:38.959Z,45
2016-07-11T04:04:38.978Z,45
2016-07-11T04:05:39.014Z,45
2016-07-11T04:06:39.036Z,45
2016-07-11T04:07:39.070Z,45
2016-07-11T04:08:39.096Z,45
2016-07-11T04:09:54.052Z,50
2016-07-11T04:10:39.158Z,50
2016-07-11T04:11:39.172Z,50
2016-07-11T04:12:39.211Z,55
2016-07-11T04:13:39.240Z,55
2016-07-11T04:14:54.179Z,60
2016-07-11T04:15:39.294Z,60
2016-07-11T04:16:54.243Z,65
2016-07-11T04:17:39.356Z,65
2016-07-11T04:18:54.295Z,65
2016-07-11T04:19:54.322Z,70
2016-07-11T04:20:54.354Z,70
2016-07-11T04:21:54.374Z,75
2016-07-11T04:22:39.491Z,75
2016-07-11T04:23:39.526Z,75
2016-07-11T04:24:39.542Z,80
2016-07-11T04:25:39.573Z,85
2016-07-11T04:26:54.521Z,85
2016-07-11T04:27:39.631Z,90
2016-07-11T04:28:39.668Z,90
2016-07-11T04:29:54.609Z,90
2016-07-11T04:30:39.717Z,95
2016-07-11T04:31:55.277Z,105
2016-07-11T04:32:39.775Z,110
2016-07-11T04:33:39.799Z,125
2016-07-11T04:34:54.747Z,135
2016-07-11T04:35:39.854Z,140
2016-07-11T04:36:39.884Z,160
2016-07-11T04:38:39.937Z,180
2016-07-11T04:39:54.888Z,180
2016-07-11T04:40:40.002Z,180
2016-07-11T04:41:40.023Z,220
2016-07-11T04:42:40.054Z,280
2016-07-11T04:43:40.095Z,350
2016-07-11T04:44:40.120Z,420
2016-07-11T04:45:40.152Z,485
2016-07-11T04:46:40.175Z,410
2016-07-11T04:47:40.206Z,425
2016-07-11T04:48:40.227Z,435
2016-07-11T04:49:40.259Z,495
2016-07-11T04:50:55.203Z,660
2016-07-11T04:51:40.325Z,705
2016-07-11T04:53:40.386Z,640
2016-07-11T04:54:55.331Z,510
2016-07-11T04:55:40.441Z,540
2016-07-11T04:56:55.380Z,555
2016-07-11T04:57:40.496Z,470
2016-07-11T04:58:40.533Z,465
2016-07-11T04:59:55.470Z,355
2016-07-11T05:00:55.502Z,345
2016-07-11T05:01:41.226Z,375
2016-07-11T05:02:40.649Z,350
2016-07-11T05:03:40.674Z,285
2016-07-11T05:04:40.718Z,280
2016-07-11T05:05:40.728Z,350
2016-07-11T05:06:55.687Z,245
2016-07-11T05:07:40.799Z,220
2016-07-11T05:08:40.828Z,220
2016-07-11T05:09:55.779Z,225
2016-07-11T05:10:40.884Z,225
2016-07-11T05:11:55.838Z,195
2016-07-11T05:12:56.503Z,200
2016-07-11T05:13:55.892Z,195
2016-07-11T05:14:41.024Z,205
2016-07-11T05:15:41.048Z,220
2016-07-11T05:16:41.061Z,260
2016-07-11T05:17:41.097Z,385
2016-07-11T05:18:41.141Z,495
2016-07-11T05:20:56.115Z,590
2016-07-11T05:22:41.248Z,785
2016-07-11T05:23:56.199Z,1020
2016-07-11T05:24:41.312Z,985
2016-07-11T05:25:41.347Z,875
2016-07-11T05:26:41.382Z,880
2016-07-11T05:27:56.946Z,515
2016-07-11T05:28:41.446Z,375
2016-07-11T05:29:41.470Z,505
2016-07-11T05:30:42.606Z,395
2016-07-11T05:31:41.543Z,550
2016-07-11T05:32:41.560Z,1065
2016-07-11T05:33:41.597Z,885
2016-07-11T05:34:41.625Z,405
2016-07-11T05:35:41.652Z,495
2016-07-11T05:36:41.693Z,750
2016-07-11T05:37:41.713Z,1150
2016-07-11T05:38:41.745Z,1040
2016-07-11T05:39:56.705Z,1235
2016-07-11T05:40:41.818Z,1070
2016-07-11T05:41:56.765Z,1105
2016-07-11T05:42:56.808Z,1200
2016-07-11T05:43:41.920Z,1180
2016-07-11T05:44:56.850Z,1230
2016-07-11T05:45:56.890Z,1200
2016-07-11T05:46:42.008Z,1205
2016-07-11T05:47:42.047Z,660
2016-07-11T05:48:42.091Z,400
2016-07-11T05:49:42.107Z,340
2016-07-11T05:50:42.142Z,1080
2016-07-11T05:51:42.192Z,830
2016-07-11T05:52:42.205Z,1335
2016-07-11T05:54:12.065Z,1330
2016-07-11T05:54:42.279Z,1315
2016-07-11T05:55:57.225Z,1345
2016-07-11T05:56:42.335Z,1310
2016-07-11T05:58:42.410Z,1245
2016-07-11T05:59:42.445Z,1265
2016-07-11T06:00:42.475Z,1425
2016-07-11T06:01:43.106Z,1325
2016-07-11T06:02:42.540Z,1355
2016-07-11T06:03:42.574Z,1435
2016-07-11T06:04:42.603Z,1405
2016-07-11T06:06:42.688Z,1350
2016-07-11T06:07:42.714Z,1255
2016-07-11T06:08:42.749Z,1085
2016-07-11T06:09:57.730Z,1240
2016-07-11T06:10:42.819Z,1225
2016-07-11T06:11:57.774Z,1225
2016-07-11T06:12:57.807Z,1145
2016-07-11T06:13:57.846Z,1125
2016-07-11T06:14:43.569Z,1200
2016-07-11T06:16:43.042Z,1150
2016-07-11T06:17:43.068Z,1150
2016-07-11T06:18:43.124Z,1220
2016-07-11T06:19:43.151Z,1080
2016-07-11T06:21:43.216Z,1210
2016-07-11T06:22:43.254Z,1170
2016-07-11T06:23:43.289Z,1180
2016-07-11T06:24:43.322Z,1200
2016-07-11T06:25:58.282Z,1225
2016-07-11T06:27:43.446Z,1235
2016-07-11T06:29:13.312Z,1140
2016-07-11T06:29:43.552Z,1190
2016-07-11T06:30:43.540Z,1195
2016-07-11T06:31:43.593Z,1065
2016-07-11T06:33:44.255Z,685
2016-07-11T06:34:58.611Z,540
2016-07-11T06:35:43.733Z,960
2016-07-11T06:36:58.680Z,1130
2016-07-11T06:37:44.414Z,1205
2016-07-11T06:38:43.842Z,1110
2016-07-11T06:39:43.878Z,1070
2016-07-11T06:40:43.931Z,1145
2016-07-11T06:42:13.781Z,1035
2016-07-11T06:42:58.904Z,990
2016-07-11T06:43:44.026Z,980
2016-07-11T06:44:44.067Z,1060
2016-07-11T06:45:44.095Z,1015
2016-07-11T06:47:44.161Z,1125
2016-07-11T06:48:44.210Z,725
2016-07-11T06:49:59.156Z,930
2016-07-11T06:50:44.278Z,1100
2016-07-11T06:51:44.310Z,950
2016-07-11T06:52:44.348Z,1000
2016-07-11T06:53:44.391Z,990
2016-07-11T06:54:44.437Z,1005
2016-07-11T06:55:44.464Z,1020
2016-07-11T06:56:59.408Z,1040
2016-07-11T06:57:44.533Z,990
2016-07-11T06:58:44.571Z,960
2016-07-11T06:59:44.606Z,905
2016-07-11T07:00:44.646Z,860
2016-07-11T07:01:44.687Z,865
2016-07-11T07:02:59.633Z,810
2016-07-11T07:03:44.773Z,695
2016-07-11T07:04:44.814Z,705
2016-07-11T07:05:45.452Z,640
2016-07-11T07:06:44.866Z,640
2016-07-11T07:07:44.913Z,540
2016-07-11T07:08:44.946Z,545
2016-07-11T07:09:44.971Z,555
2016-07-11T07:10:45.025Z,550
2016-07-11T07:11:45.048Z,570
2016-07-11T07:12:45.705Z,555
2016-07-11T07:13:45.127Z,615
2016-07-11T07:14:45.155Z,555
2016-07-11T07:15:45.197Z,550
2016-07-11T07:16:45.233Z,565
2016-07-11T07:18:00.187Z,550
2016-07-11T07:18:45.298Z,565
2016-07-11T07:20:00.257Z,515
2016-07-11T07:20:45.377Z,555
2016-07-11T07:22:00.326Z,600
2016-07-11T07:22:45.450Z,620
2016-07-11T07:24:00.402Z,620
2016-07-11T07:24:45.518Z,635
2016-07-11T07:25:45.566Z,670
2016-07-11T07:26:45.594Z,745
2016-07-11T07:27:45.633Z,820
2016-07-11T07:29:15.491Z,835
2016-07-11T07:29:45.708Z,755
2016-07-11T07:31:45.766Z,675
2016-07-11T07:32:45.801Z,655
2016-07-11T07:33:45.841Z,640
2016-07-11T07:34:45.893Z,630
2016-07-11T07:36:00.830Z,655
2016-07-11T07:36:45.958Z,700
2016-07-11T07:38:00.904Z,655
2016-07-11T07:39:46.077Z,665
2016-07-11T07:40:46.096Z,580
2016-07-11T07:41:46.139Z,585
2016-07-11T07:42:46.163Z,500
2016-07-11T07:43:46.198Z,480
2016-07-11T07:45:01.150Z,350
2016-07-11T07:46:01.188Z,380
2016-07-11T07:47:01.220Z,395
2016-07-11T07:49:46.407Z,380
2016-07-11T07:50:47.056Z,405
2016-07-11T07:51:46.479Z,375
2016-07-11T07:52:46.524Z,385
2016-07-11T07:53:46.565Z,370
2016-07-11T07:54:46.582Z,330
2016-07-11T07:55:46.615Z,340
2016-07-11T07:57:01.580Z,325
2016-07-11T07:57:46.680Z,325
2016-07-11T07:58:46.739Z,345
2016-07-11T07:59:46.752Z,365
2016-07-11T08:01:16.615Z,360
2016-07-11T08:01:46.824Z,375
2016-07-11T08:02:46.868Z,375
2016-07-11T08:03:46.895Z,425
2016-07-11T08:04:46.924Z,415
2016-07-11T08:05:46.952Z,395
2016-07-11T08:06:46.997Z,345
2016-07-11T08:08:01.941Z,370
2016-07-11T08:08:47.669Z,375
2016-07-11T08:10:02.008Z,365
2016-07-11T08:10:47.138Z,370
2016-07-11T08:11:47.161Z,390
2016-07-11T08:12:47.190Z,355
2016-07-11T08:13:47.225Z,355
2016-07-11T08:14:47.264Z,435
2016-07-11T08:15:47.288Z,520
2016-07-11T08:17:02.241Z,515
2016-07-11T08:17:47.373Z,345
2016-07-11T08:18:47.391Z,445
2016-07-11T08:19:47.434Z,485
2016-07-11T08:21:02.384Z,465
2016-07-11T08:21:47.492Z,440
2016-07-11T08:22:47.540Z,455
2016-07-11T08:24:02.476Z,350
2016-07-11T08:24:47.600Z,365
2016-07-11T08:25:47.638Z,375
2016-07-11T08:27:02.585Z,355
2016-07-11T08:27:47.705Z,370
2016-07-11T08:28:47.734Z,380
2016-07-11T08:29:47.774Z,375
2016-07-11T08:30:47.799Z,390
2016-07-11T08:32:02.762Z,380
2016-07-11T08:32:47.863Z,360
2016-07-11T08:34:02.815Z,360
2016-07-11T08:34:48.662Z,425
2016-07-11T08:36:48.009Z,345
2016-07-11T08:37:48.041Z,350
2016-07-11T08:39:02.990Z,325
2016-07-11T08:40:03.027Z,380
2016-07-11T08:40:48.139Z,305
2016-07-11T08:41:48.166Z,280
2016-07-11T08:43:03.120Z,270
2016-07-11T08:43:48.941Z,265
2016-07-11T08:45:48.316Z,260
2016-07-11T08:46:48.351Z,280
2016-07-11T08:47:48.382Z,275
2016-07-11T08:49:03.321Z,360
2016-07-11T08:50:03.361Z,305
2016-07-11T08:50:48.482Z,375
2016-07-11T08:52:03.424Z,310
2016-07-11T08:52:48.561Z,405
2016-07-11T08:53:48.588Z,415
2016-07-11T08:55:03.520Z,435
2016-07-11T08:55:48.645Z,445
2016-07-11T08:56:48.680Z,495
2016-07-11T08:57:48.703Z,480
2016-07-11T08:58:48.729Z,465
2016-07-11T08:59:48.779Z,320
2016-07-11T09:00:48.812Z,360
2016-07-11T09:01:48.845Z,380
2016-07-11T09:02:48.890Z,375
2016-07-11T09:04:03.832Z,385
2016-07-11T09:05:16.585Z,360
2016-07-11T09:05:48.944Z,380
2016-07-11T09:06:49.675Z,350
2016-07-11T09:07:49.014Z,310
2016-07-11T09:09:49.104Z,415
2016-07-11T09:10:49.143Z,395
2016-07-11T09:11:49.180Z,380
2016-07-11T09:13:49.236Z,445
2016-07-11T09:14:49.288Z,470
2016-07-11T09:15:50.016Z,470
2016-07-11T09:16:49.349Z,410
2016-07-11T09:17:49.388Z,450
2016-07-11T09:18:49.416Z,435
2016-07-11T09:20:04.360Z,320
2016-07-11T09:20:49.488Z,405
2016-07-11T09:21:49.508Z,410
2016-07-11T09:22:49.562Z,375
2016-07-11T09:23:49.582Z,395
2016-07-11T09:24:49.619Z,390
2016-07-11T09:26:04.571Z,390
2016-07-11T09:27:04.601Z,380
2016-07-11T09:28:04.634Z,380
2016-07-11T09:29:04.671Z,395
2016-07-11T09:29:49.778Z,340
2016-07-11T09:30:49.828Z,380
2016-07-11T09:32:49.901Z,380
2016-07-11T09:34:04.838Z,370
2016-07-11T09:34:49.965Z,430
2016-07-11T09:36:04.908Z,505
2016-07-11T09:36:50.020Z,360
2016-07-11T09:37:50.062Z,340
2016-07-11T09:38:50.101Z,435
2016-07-11T09:39:50.141Z,400
2016-07-11T09:40:50.173Z,480
2016-07-11T09:41:50.200Z,395
2016-07-11T09:43:20.073Z,380
2016-07-11T09:43:50.277Z,380
2016-07-11T09:44:50.305Z,390
2016-07-11T09:45:51.049Z,310
2016-07-11T09:46:50.375Z,290
2016-07-11T09:47:50.406Z,345
2016-07-11T09:48:50.448Z,310
2016-07-11T09:49:50.480Z,315
2016-07-11T09:51:05.422Z,350
2016-07-11T09:52:20.376Z,345
2016-07-11T09:53:50.616Z,365
2016-07-11T09:55:05.559Z,375
2016-07-11T09:55:51.380Z,375
2016-07-11T09:57:05.633Z,380
2016-07-11T09:57:51.455Z,440
2016-07-11T09:58:50.790Z,335
2016-07-11T10:00:05.737Z,330
2016-07-11T10:00:50.857Z,315
2016-07-11T10:01:50.886Z,305
2016-07-11T10:02:50.929Z,295
2016-07-11T10:03:50.951Z,290
2016-07-11T10:04:50.984Z,300
2016-07-11T10:05:51.023Z,335
2016-07-11T10:07:05.985Z,330
2016-07-11T10:07:51.097Z,360
2016-07-11T10:09:06.042Z,335
2016-07-11T10:10:06.077Z,400
2016-07-11T10:10:51.197Z,390
2016-07-11T10:11:51.223Z,410
2016-07-11T10:12:51.265Z,400
2016-07-11T10:14:06.208Z,380
2016-07-11T10:14:51.331Z,390
2016-07-11T10:15:51.366Z,375
2016-07-11T10:16:51.396Z,360
2016-07-11T10:17:51.426Z,350
2016-07-11T10:18:51.459Z,345
2016-07-11T10:19:51.496Z,340
2016-07-11T10:20:51.530Z,340
2016-07-11T10:22:06.484Z,350
2016-07-11T10:23:06.520Z,355
2016-07-11T10:23:51.621Z,360
2016-07-11T10:24:51.665Z,365
2016-07-11T10:25:51.696Z,355
2016-07-11T10:26:51.740Z,320
2016-07-11T10:28:06.683Z,355
2016-07-11T10:28:51.799Z,335
2016-07-11T10:29:51.840Z,325
2016-07-11T10:30:51.865Z,285
2016-07-11T10:31:51.904Z,280
2016-07-11T10:32:51.947Z,375
2016-07-11T10:33:51.968Z,390
2016-07-11T10:34:52.007Z,400
2016-07-11T10:35:52.045Z,300
2016-07-11T10:36:52.777Z,365
2016-07-11T10:37:52.104Z,370
2016-07-11T10:39:21.966Z,365
2016-07-11T10:40:52.208Z,370
2016-07-11T10:41:52.250Z,360
2016-07-11T10:42:52.976Z,310
2016-07-11T10:44:07.921Z,315
2016-07-11T10:45:07.968Z,315
2016-07-11T10:45:52.383Z,385
2016-07-11T10:46:52.408Z,385
2016-07-11T10:47:52.440Z,380
2016-07-11T10:49:52.513Z,360
2016-07-11T10:50:52.546Z,395
2016-07-11T10:51:52.585Z,380
2016-07-11T10:52:53.317Z,360
2016-07-11T10:53:52.640Z,365
2016-07-11T10:55:07.598Z,355
2016-07-11T10:55:52.710Z,350
2016-07-11T10:56:52.751Z,340
2016-07-11T10:57:52.787Z,335
2016-07-11T10:58:52.810Z,330
2016-07-11T10:59:53.555Z,330
2016-07-11T11:00:52.895Z,325
2016-07-11T11:01:52.918Z,320
2016-07-11T11:03:07.861Z,315
2016-07-11T11:03:52.985Z,320
2016-07-11T11:04:53.020Z,305
2016-07-11T11:05:53.052Z,285
2016-07-11T11:06:53.087Z,295
2016-07-11T11:07:53.125Z,295
2016-07-11T11:09:08.056Z,285
2016-07-11T11:10:08.109Z,245
2016-07-11T11:11:08.126Z,235
2016-07-11T11:11:53.242Z,240
2016-07-11T11:12:53.293Z,235
2016-07-11T11:14:53.340Z,290
2016-07-11T11:15:53.372Z,295
2016-07-11T11:17:08.326Z,280
2016-07-11T11:18:08.362Z,255
2016-07-11T11:18:53.485Z,290
2016-07-11T11:19:53.513Z,295
2016-07-11T11:20:54.267Z,275
2016-07-11T11:22:08.495Z,310
2016-07-11T11:22:53.609Z,320
2016-07-11T11:25:08.586Z,305
2016-07-11T11:25:53.711Z,300
2016-07-11T11:27:08.671Z,255
2016-07-11T11:28:08.692Z,240
2016-07-11T11:29:53.846Z,305
2016-07-11T11:31:08.796Z,255
2016-07-11T11:31:53.918Z,270
2016-07-11T11:32:53.940Z,250
2016-07-11T11:33:53.976Z,240
2016-07-11T11:34:54.021Z,255
2016-07-11T11:36:08.955Z,320
2016-07-11T11:36:54.085Z,330
2016-07-11T11:37:54.805Z,260
2016-07-11T11:38:54.145Z,275
2016-07-11T11:39:54.179Z,325
2016-07-11T11:40:54.199Z,320
2016-07-11T11:42:09.159Z,245
2016-07-11T11:42:54.280Z,320
2016-07-11T11:43:55.013Z,255
2016-07-11T11:44:54.353Z,315
2016-07-11T11:45:54.375Z,295
2016-07-11T11:46:54.406Z,280
2016-07-11T11:47:54.443Z,225
2016-07-11T11:49:24.306Z,200
2016-07-11T11:49:55.212Z,195
2016-07-11T11:50:55.242Z,195
2016-07-11T11:51:54.569Z,200
2016-07-11T11:52:54.597Z,190
2016-07-11T11:53:54.646Z,185
2016-07-11T11:54:55.368Z,190
2016-07-11T11:55:54.703Z,190
2016-07-11T11:57:54.761Z,190
2016-07-11T11:58:54.798Z,185
2016-07-11T11:59:55.539Z,195
2016-07-11T12:02:54.930Z,235
2016-07-11T12:03:54.956Z,255
2016-07-11T12:04:54.998Z,260
2016-07-11T12:05:55.053Z,270
2016-07-11T12:07:09.975Z,275
2016-07-11T12:07:55.086Z,265
2016-07-11T12:08:55.123Z,265
2016-07-11T12:09:55.169Z,270
2016-07-11T12:10:55.891Z,270
2016-07-11T12:11:55.231Z,265
2016-07-11T12:12:55.961Z,270
2016-07-11T12:14:10.200Z,280
2016-07-11T12:14:55.335Z,290
2016-07-11T12:16:10.275Z,325
2016-07-11T12:16:55.383Z,310
2016-07-11T12:17:55.413Z,320
2016-07-11T12:18:56.157Z,325
2016-07-11T12:19:55.486Z,320
2016-07-11T12:20:55.512Z,290
2016-07-11T12:22:11.248Z,280
2016-07-11T12:22:55.582Z,270
2016-07-11T12:23:55.621Z,270
2016-07-11T12:25:10.557Z,315
2016-07-11T12:25:55.680Z,275
2016-07-11T12:26:55.720Z,270
2016-07-11T12:27:55.740Z,255
2016-07-11T12:28:55.769Z,260
2016-07-11T12:30:10.731Z,270
2016-07-11T12:31:10.774Z,280
2016-07-11T12:32:10.796Z,330
2016-07-11T12:33:55.953Z,255
2016-07-11T12:34:55.976Z,270
2016-07-11T12:35:56.006Z,280
2016-07-11T12:36:56.099Z,280
2016-07-11T12:37:56.076Z,255
2016-07-11T12:38:56.108Z,230
2016-07-11T12:40:56.172Z,220
2016-07-11T12:41:56.199Z,220
2016-07-11T12:42:56.237Z,210
2016-07-11T12:43:56.265Z,205
2016-07-11T12:44:56.310Z,200
2016-07-11T12:46:11.256Z,200
2016-07-11T12:47:11.286Z,195
2016-07-11T12:47:56.392Z,190
2016-07-11T12:48:56.434Z,180
2016-07-11T12:50:12.070Z,175
2016-07-11T12:50:56.497Z,170
2016-07-11T12:51:56.523Z,170
2016-07-11T12:53:11.472Z,170
2016-07-11T12:54:11.511Z,180
2016-07-11T12:54:56.619Z,185
2016-07-11T12:55:56.650Z,195
2016-07-11T12:56:56.688Z,200
2016-07-11T12:57:56.726Z,195
2016-07-11T12:59:11.676Z,195
2016-07-11T12:59:56.788Z,205
2016-07-11T13:00:56.817Z,215
2016-07-11T13:02:11.768Z,215
2016-07-11T13:02:56.871Z,215
2016-07-11T13:03:56.914Z,220
2016-07-11T13:05:11.865Z,220
2016-07-11T13:05:56.977Z,225
2016-07-11T13:06:57.019Z,235
2016-07-11T13:08:11.964Z,245
2016-07-11T13:08:57.077Z,235
2016-07-11T13:09:57.112Z,240
2016-07-11T13:10:57.160Z,230
2016-07-11T13:11:57.178Z,230
2016-07-11T13:13:12.118Z,230
2016-07-11T13:13:57.249Z,230
2016-07-11T13:14:57.288Z,235
2016-07-11T13:15:57.311Z,230
2016-07-11T13:17:27.163Z,235
2016-07-11T13:17:57.365Z,240
2016-07-11T13:18:57.399Z,235
2016-07-11T13:19:57.426Z,235
2016-07-11T13:21:12.389Z,240
2016-07-11T13:21:57.502Z,245
2016-07-11T13:23:12.447Z,245
2016-07-11T13:24:12.486Z,240
2016-07-11T13:24:57.594Z,235
2016-07-11T13:26:12.537Z,230
2016-07-11T13:26:57.648Z,225
2016-07-11T13:27:57.693Z,220
2016-07-11T13:28:57.728Z,210
2016-07-11T13:29:57.751Z,205
2016-07-11T13:30:57.799Z,200
2016-07-11T13:31:57.825Z,195
2016-07-11T13:32:57.856Z,195
2016-07-11T13:33:57.888Z,195
2016-07-11T13:34:57.932Z,195
2016-07-11T13:35:57.966Z,195
2016-07-11T13:36:57.978Z,205
2016-07-11T13:37:59.014Z,195
2016-07-11T13:39:58.085Z,190
2016-07-11T13:40:58.107Z,190
2016-07-11T13:41:58.150Z,190
2016-07-11T13:42:58.182Z,190
2016-07-11T13:43:58.200Z,185
2016-07-11T13:44:58.236Z,180
2016-07-11T13:46:13.195Z,175
2016-07-11T13:46:58.300Z,175
2016-07-11T13:47:58.354Z,170
2016-07-11T13:49:13.292Z,160
2016-07-11T13:49:58.404Z,155
2016-07-11T13:51:14.048Z,155
2016-07-11T13:52:13.379Z,155
2016-07-11T13:52:58.509Z,150
2016-07-11T13:53:58.529Z,150
2016-07-11T13:56:58.631Z,150
2016-07-11T13:58:58.686Z,150
2016-07-11T13:59:58.722Z,160
2016-07-11T14:00:58.749Z,165
2016-07-11T14:01:58.788Z,175
2016-07-11T14:03:13.735Z,190
2016-07-11T14:03:58.843Z,195
2016-07-11T14:05:13.792Z,205
2016-07-11T14:05:58.919Z,205
2016-07-11T14:06:58.929Z,205
2016-07-11T14:07:58.981Z,210
2016-07-11T14:08:59.007Z,215
2016-07-11T14:09:59.031Z,215
2016-07-11T14:10:59.078Z,225
2016-07-11T14:11:59.112Z,225
2016-07-11T14:12:59.129Z,230
2016-07-11T14:13:59.168Z,225
2016-07-11T14:14:59.189Z,210
2016-07-11T14:15:59.234Z,205
2016-07-11T14:16:59.274Z,190
2016-07-11T14:17:59.302Z,190
2016-07-11T14:18:59.324Z,185
2016-07-11T14:19:59.363Z,185
2016-07-11T14:21:29.211Z,170
2016-07-11T14:21:59.417Z,165
2016-07-11T14:22:59.452Z,165
2016-07-11T14:23:59.483Z,160
2016-07-11T14:24:59.509Z,165
2016-07-11T14:25:59.550Z,165
2016-07-11T14:26:59.578Z,175
2016-07-11T14:28:14.523Z,175
2016-07-11T14:28:59.640Z,175
2016-07-11T14:29:59.674Z,180
2016-07-11T14:30:59.698Z,200
2016-07-11T14:31:59.742Z,195
2016-07-11T14:32:59.767Z,205
2016-07-11T14:33:59.800Z,200
2016-07-11T14:34:59.836Z,190
2016-07-11T14:35:59.865Z,190
2016-07-11T14:37:29.718Z,180
2016-07-11T14:38:14.894Z,175
2016-07-11T14:38:59.951Z,170
2016-07-11T14:39:59.989Z,175
2016-07-11T14:41:00.032Z,175
2016-07-11T14:42:00.060Z,180
2016-07-11T14:43:00.090Z,185
2016-07-11T14:44:15.032Z,185
2016-07-11T14:45:00.158Z,185
2016-07-11T14:46:00.181Z,180
2016-07-11T14:48:00.245Z,195
2016-07-11T14:49:00.280Z,195
2016-07-11T14:50:00.310Z,200
2016-07-11T14:51:00.342Z,200
2016-07-11T14:52:15.292Z,180
2016-07-11T14:53:15.327Z,165
2016-07-11T14:54:00.437Z,160
2016-07-11T14:55:15.390Z,145
2016-07-11T14:56:00.508Z,140